Mackenzie, Canada
Current Conditions -  °F | °C
As of 8:00 PM on Friday 19 Dec 2014 (Local Time) from CYZY Reporting Station
Overcast Overcast  
Wind Chill:   Ceiling: 7000
Heat Index:   Visibility: 9mi
Dew Point:   Wind: 3mph
Humidity: 100%   Direction: 210°SSW
Pressure: 29.59"   Gusts: NA
Location:  55.33°N, 123.09°W
Report Text: CYZY 200400Z AUTO 21003KT 9SM OVC070 00/00 A2959 RMK SLP052
Loading
Personal Weather Stations






























Interactive Weather Map New forecast layout! Learn more

10-Day Weather Forecast

Advertisements
Track Severe Weather on mobile